Time;durP1;ratioP1;P1;durP2;ratioP2;P2;SDS_P1;SDS_P2;PMS_P1;PMS_P2;Temp;Humidity;BMP_temperature;BMP_pressure;BME280_temperature;BME280_humidity;BME280_pressure;Samples;Min_cycle;Max_cycle;Signal;HPM_P1;HPM_P2
2021/01/28 00:00:12;;;;;;;26.40;6.35;;;;;;;;;;5077208;28;20472;-68
2021/01/28 00:02:42;;;;;;;22.35;6.57;;;;;;;;;;5071600;28;20119;-68
2021/01/28 00:05:09;;;;;;;22.60;5.72;;;;;;;;;;5046071;28;20076;-68
2021/01/28 00:07:36;;;;;;;20.38;5.85;;;;;;;;;;5054424;28;20100;-69
2021/01/28 00:10:05;;;;;;;28.45;6.03;;;;;;;;;;5061053;28;21447;-69
2021/01/28 00:12:32;;;;;;;23.20;5.10;;;;;;;;;;5052670;28;20088;-69
2021/01/28 00:14:58;;;;;;;20.65;5.93;;;;;;;;;;5066126;28;20555;-68
2021/01/28 00:17:24;;;;;;;18.70;5.28;;;;;;;;;;5069784;28;20168;-68
2021/01/28 00:19:50;;;;;;;24.13;6.13;;;;;;;;;;5072919;28;20044;-68
2021/01/28 00:22:17;;;;;;;19.40;5.60;;;;;;;;;;5072119;28;20089;-68
2021/01/28 00:24:43;;;;;;;15.73;4.95;;;;;;;;;;5079112;28;20055;-68
2021/01/28 00:27:09;;;;;;;30.67;6.20;;;;;;;;;;5054975;28;20040;-68
2021/01/28 00:29:35;;;;;;;18.25;5.80;;;;;;;;;;5074556;28;20044;-69
2021/01/28 00:32:03;;;;;;;74.45;9.40;;;;;;;;;;5070154;28;20555;-69
2021/01/28 00:34:29;;;;;;;25.85;4.90;;;;;;;;;;5066000;28;20052;-69
2021/01/28 00:36:55;;;;;;;21.65;6.15;;;;;;;;;;5057452;28;20044;-69
2021/01/28 00:39:22;;;;;;;23.23;5.80;;;;;;;;;;5074870;28;20053;-69
2021/01/28 00:41:48;;;;;;;26.95;6.43;;;;;;;;;;5076028;28;20131;-69
2021/01/28 00:44:15;;;;;;;47.85;7.75;;;;;;;;;;5055953;28;20076;-69
2021/01/28 00:46:41;;;;;;;117.53;10.43;;;;;;;;;;5069459;28;20044;-68
2021/01/28 00:49:08;;;;;;;53.05;5.05;;;;;;;;;;5074299;28;20442;-68
2021/01/28 00:51:34;;;;;;;55.10;6.45;;;;;;;;;;5070232;28;20476;-69
2021/01/28 00:54:00;;;;;;;46.45;5.50;;;;;;;;;;5074737;28;20049;-68
2021/01/28 00:56:27;;;;;;;260.52;15.85;;;;;;;;;;5074151;28;20408;-68
2021/01/28 00:58:53;;;;;;;23.38;2.65;;;;;;;;;;5073591;28;20116;-69
2021/01/28 01:01:20;;;;;;;136.00;5.90;;;;;;;;;;5072047;28;20109;-69
2021/01/28 01:03:46;;;;;;;205.60;8.30;;;;;;;;;;5072235;28;20045;-68
2021/01/28 01:06:13;;;;;;;196.57;7.80;;;;;;;;;;5076297;28;20028;-68
2021/01/28 01:08:39;;;;;;;129.13;8.70;;;;;;;;;;5055617;28;20111;-69
2021/01/28 01:11:08;;;;;;;119.53;4.88;;;;;;;;;;5076324;28;20036;-69
2021/01/28 01:13:35;;;;;;;232.07;10.57;;;;;;;;;;5070214;28;20049;-68
2021/01/28 01:16:02;;;;;;;223.93;7.80;;;;;;;;;;5071904;28;20059;-69
2021/01/28 01:18:30;;;;;;;258.83;10.68;;;;;;;;;;5052056;28;20055;-69
2021/01/28 01:20:58;;;;;;;215.80;11.07;;;;;;;;;;5072924;28;20050;-68
2021/01/28 01:23:24;;;;;;;355.00;16.88;;;;;;;;;;5072549;28;20119;-68
2021/01/28 01:25:50;;;;;;;285.88;11.45;;;;;;;;;;5069241;28;20090;-68
2021/01/28 01:28:17;;;;;;;247.90;11.40;;;;;;;;;;5073796;28;20036;-68
2021/01/28 01:30:43;;;;;;;174.98;7.15;;;;;;;;;;5065702;28;20044;-69
2021/01/28 01:33:10;;;;;;;223.20;11.77;;;;;;;;;;5071346;28;20127;-68
2021/01/28 01:35:36;;;;;;;318.13;12.95;;;;;;;;;;5077717;28;20131;-68
2021/01/28 01:38:03;;;;;;;471.52;22.17;;;;;;;;;;5079446;28;20036;-68
2021/01/28 01:40:32;;;;;;;193.25;8.13;;;;;;;;;;5076511;28;20097;-69
2021/01/28 01:42:58;;;;;;;267.30;11.13;;;;;;;;;;5068262;28;20053;-68
2021/01/28 01:45:32;;;;;;;535.10;33.22;;;;;;;;;;5074948;28;20059;-69
2021/01/28 01:48:04;;;;;;;352.23;23.15;;;;;;;;;;5076731;28;20036;-68
2021/01/28 01:50:45;;;;;;;115.68;6.25;;;;;;;;;;5074920;28;20433;-68
2021/01/28 01:53:15;;;;;;;335.60;19.02;;;;;;;;;;5073673;28;20123;-69
2021/01/28 01:55:43;;;;;;;183.63;9.63;;;;;;;;;;5060403;28;20145;-69
2021/01/28 01:58:11;;;;;;;423.00;25.88;;;;;;;;;;5070096;28;20127;-68
2021/01/28 02:00:38;;;;;;;454.80;27.98;;;;;;;;;;5061330;28;20039;-69
2021/01/28 02:03:09;;;;;;;77.28;4.10;;;;;;;;;;5077273;28;20036;-69
2021/01/28 02:05:37;;;;;;;303.67;17.92;;;;;;;;;;5074966;28;20059;-68
2021/01/28 02:08:04;;;;;;;182.73;7.97;;;;;;;;;;5074427;28;20048;-68
2021/01/28 02:10:31;;;;;;;82.40;4.60;;;;;;;;;;5076464;28;20052;-68
2021/01/28 02:12:58;;;;;;;65.95;4.18;;;;;;;;;;5074655;28;20051;-68
2021/01/28 02:15:25;;;;;;;95.85;5.03;;;;;;;;;;5075409;28;20506;-69
2021/01/28 02:17:54;;;;;;;87.43;4.45;;;;;;;;;;5079193;28;20037;-68
2021/01/28 02:20:29;;;;;;;210.50;8.48;;;;;;;;;;5079909;28;20045;-69
2021/01/28 02:23:16;;;;;;;177.02;6.55;;;;;;;;;;5076285;28;20048;-68
2021/01/28 02:25:43;;;;;;;134.00;5.65;;;;;;;;;;5053844;28;20365;-68
2021/01/28 02:28:11;;;;;;;120.30;6.63;;;;;;;;;;5073984;28;20040;-68
2021/01/28 02:30:39;;;;;;;54.22;3.92;;;;;;;;;;5078168;28;20044;-69
2021/01/28 02:33:06;;;;;;;85.93;10.68;;;;;;;;;;5071106;28;20115;-69
2021/01/28 02:35:33;;;;;;;82.75;8.60;;;;;;;;;;5076830;28;20051;-68
2021/01/28 02:38:01;;;;;;;262.70;13.95;;;;;;;;;;5077571;28;20072;-68
2021/01/28 02:40:29;;;;;;;71.07;7.47;;;;;;;;;;5083017;28;20439;-69
2021/01/28 02:42:55;;;;;;;213.48;14.75;;;;;;;;;;5074333;28;20788;-69
2021/01/28 02:45:25;;;;;;;224.60;13.57;;;;;;;;;;5074569;28;20045;-68
2021/01/28 02:47:52;;;;;;;152.63;11.30;;;;;;;;;;5080654;28;20044;-68
2021/01/28 02:50:18;;;;;;;381.23;23.85;;;;;;;;;;5077394;28;20454;-68
2021/01/28 02:52:45;;;;;;;312.67;18.20;;;;;;;;;;5073237;28;20045;-68
2021/01/28 02:55:11;;;;;;;143.15;7.05;;;;;;;;;;5060952;28;20109;-68
2021/01/28 02:57:37;;;;;;;223.38;9.52;;;;;;;;;;5076045;28;20125;-69
2021/01/28 03:00:06;;;;;;;219.20;9.93;;;;;;;;;;5070589;28;20064;-69
2021/01/28 03:02:32;;;;;;;231.23;11.43;;;;;;;;;;5071644;28;20066;-69
2021/01/28 03:04:59;;;;;;;279.33;12.45;;;;;;;;;;5071736;28;20046;-68
2021/01/28 03:07:26;;;;;;;201.88;9.18;;;;;;;;;;5074620;28;20124;-68
2021/01/28 03:09:52;;;;;;;239.25;11.30;;;;;;;;;;5058121;28;20041;-68
2021/01/28 03:12:18;;;;;;;176.90;7.05;;;;;;;;;;5056581;28;20045;-68
2021/01/28 03:14:45;;;;;;;257.77;15.82;;;;;;;;;;5076181;28;20086;-68
2021/01/28 03:17:11;;;;;;;130.25;9.00;;;;;;;;;;5071895;28;20071;-69
2021/01/28 03:19:37;;;;;;;91.25;7.07;;;;;;;;;;5076268;28;20086;-69
2021/01/28 03:22:03;;;;;;;142.10;8.57;;;;;;;;;;5071274;28;20046;-68
2021/01/28 03:24:30;;;;;;;165.38;14.55;;;;;;;;;;5074433;28;20041;-69
2021/01/28 03:26:56;;;;;;;113.20;10.48;;;;;;;;;;5055660;28;20767;-69
2021/01/28 03:29:22;;;;;;;65.18;7.20;;;;;;;;;;5077897;28;20072;-68
2021/01/28 03:31:48;;;;;;;98.90;7.32;;;;;;;;;;5075849;28;20530;-69
2021/01/28 03:34:15;;;;;;;95.60;8.68;;;;;;;;;;5072910;28;20041;-68
2021/01/28 03:36:41;;;;;;;105.85;12.00;;;;;;;;;;5074313;28;20070;-68
2021/01/28 03:39:08;;;;;;;46.22;10.45;;;;;;;;;;5075765;28;20069;-68
2021/01/28 03:41:34;;;;;;;37.33;6.35;;;;;;;;;;5075305;28;20068;-69
2021/01/28 03:44:00;;;;;;;17.75;4.93;;;;;;;;;;5058765;28;20117;-69
2021/01/28 03:46:27;;;;;;;22.60;6.75;;;;;;;;;;5060267;28;20123;-69
2021/01/28 03:48:53;;;;;;;26.98;4.38;;;;;;;;;;5079090;28;20262;-69
2021/01/28 03:51:20;;;;;;;25.27;6.32;;;;;;;;;;5070652;28;20044;-69
2021/01/28 03:53:46;;;;;;;11.35;5.18;;;;;;;;;;5078451;28;20083;-69
2021/01/28 03:56:13;;;;;;;34.58;7.35;;;;;;;;;;5071077;28;21988;-68
2021/01/28 03:58:39;;;;;;;18.92;4.65;;;;;;;;;;5074317;28;20048;-69
2021/01/28 04:01:05;;;;;;;53.53;6.72;;;;;;;;;;5075799;28;20063;-68
2021/01/28 04:03:31;;;;;;;21.17;6.07;;;;;;;;;;5072159;28;20804;-68
2021/01/28 04:05:58;;;;;;;39.80;7.82;;;;;;;;;;5080452;28;20459;-68
2021/01/28 04:08:28;;;;;;;36.72;7.13;;;;;;;;;;5070631;28;20096;-68
2021/01/28 04:10:55;;;;;;;43.58;7.72;;;;;;;;;;5078035;28;20037;-68
2021/01/28 04:13:21;;;;;;;35.28;7.93;;;;;;;;;;5054048;28;20044;-68
2021/01/28 04:15:47;;;;;;;28.75;4.90;;;;;;;;;;5053018;28;20032;-68
2021/01/28 04:18:16;;;;;;;24.40;4.93;;;;;;;;;;5074096;28;20044;-69
2021/01/28 04:20:43;;;;;;;60.47;7.00;;;;;;;;;;5059249;28;20491;-68
2021/01/28 04:23:09;;;;;;;44.83;5.85;;;;;;;;;;5073074;28;20067;-69
2021/01/28 04:25:36;;;;;;;52.17;6.10;;;;;;;;;;5074098;28;20117;-68
2021/01/28 04:28:02;;;;;;;63.30;6.45;;;;;;;;;;5076176;28;20127;-68
2021/01/28 04:30:30;;;;;;;59.95;6.72;;;;;;;;;;5074071;28;20059;-68
2021/01/28 04:32:57;;;;;;;10.32;4.75;;;;;;;;;;5066857;28;20040;-68
2021/01/28 04:35:23;;;;;;;5.45;3.20;;;;;;;;;;5063945;28;20052;-68
2021/01/28 04:37:50;;;;;;;8.48;3.17;;;;;;;;;;5074910;28;20118;-68
2021/01/28 04:40:24;;;;;;;25.65;3.65;;;;;;;;;;5074445;28;20044;-68
2021/01/28 04:42:50;;;;;;;87.68;7.28;;;;;;;;;;5071067;28;20056;-69
2021/01/28 04:45:19;;;;;;;76.32;6.70;;;;;;;;;;5074018;28;20050;-68
2021/01/28 04:47:50;;;;;;;95.10;7.20;;;;;;;;;;5070948;28;20066;-68
2021/01/28 04:50:20;;;;;;;88.20;7.05;;;;;;;;;;5070313;28;20492;-68
2021/01/28 04:52:48;;;;;;;108.40;8.30;;;;;;;;;;5070775;28;20036;-68
2021/01/28 04:55:15;;;;;;;95.07;9.77;;;;;;;;;;5072588;28;20071;-68
2021/01/28 04:57:42;;;;;;;71.65;10.57;;;;;;;;;;5058736;28;20040;-69
2021/01/28 05:00:09;;;;;;;77.80;12.05;;;;;;;;;;5075004;28;20047;-69
2021/01/28 05:02:35;;;;;;;73.50;9.27;;;;;;;;;;5051697;28;20064;-69
2021/01/28 05:05:05;;;;;;;68.75;10.48;;;;;;;;;;5052838;28;20113;-68
2021/01/28 05:07:36;;;;;;;53.15;9.00;;;;;;;;;;5064238;28;20504;-68
2021/01/28 05:10:15;;;;;;;71.72;9.95;;;;;;;;;;5073412;28;20044;-68
2021/01/28 05:12:41;;;;;;;90.55;10.20;;;;;;;;;;5073343;28;20060;-68
2021/01/28 05:15:11;;;;;;;68.90;9.85;;;;;;;;;;5058822;28;20115;-68
2021/01/28 05:17:37;;;;;;;31.50;8.68;;;;;;;;;;5073109;28;20040;-67
2021/01/28 05:20:04;;;;;;;67.03;12.32;;;;;;;;;;5070963;28;20048;-68
2021/01/28 05:22:33;;;;;;;82.90;12.23;;;;;;;;;;5075464;28;20496;-69
2021/01/28 05:25:01;;;;;;;84.97;16.42;;;;;;;;;;5073060;28;20040;-68
2021/01/28 05:27:35;;;;;;;35.75;9.25;;;;;;;;;;5069340;28;20047;-68
2021/01/28 05:30:05;;;;;;;50.88;12.52;;;;;;;;;;5072745;28;20072;-69
2021/01/28 05:32:36;;;;;;;37.72;10.88;;;;;;;;;;5055060;28;20047;-68
2021/01/28 05:35:18;;;;;;;51.45;12.10;;;;;;;;;;5074769;28;20047;-69
2021/01/28 05:37:44;;;;;;;60.72;11.98;;;;;;;;;;5072068;28;20043;-68
2021/01/28 05:40:11;;;;;;;113.13;16.50;;;;;;;;;;5075691;28;20049;-68
2021/01/28 05:42:40;;;;;;;89.00;14.00;;;;;;;;;;5074831;28;20033;-68
2021/01/28 05:45:20;;;;;;;73.82;12.32;;;;;;;;;;5078832;28;20044;-68
2021/01/28 05:47:46;;;;;;;26.98;9.52;;;;;;;;;;5076098;28;20032;-69
2021/01/28 05:50:14;;;;;;;60.38;11.63;;;;;;;;;;5075907;28;20048;-68
2021/01/28 05:52:40;;;;;;;48.85;11.15;;;;;;;;;;5075261;28;20064;-68
2021/01/28 05:55:09;;;;;;;54.47;9.68;;;;;;;;;;5074280;28;20731;-68
2021/01/28 05:57:39;;;;;;;72.28;11.45;;;;;;;;;;5075006;28;20028;-68
2021/01/28 06:00:16;;;;;;;57.15;12.98;;;;;;;;;;5078204;28;20437;-68
2021/01/28 06:02:57;;;;;;;40.58;10.38;;;;;;;;;;5080918;28;20090;-68
2021/01/28 06:05:27;;;;;;;16.83;8.68;;;;;;;;;;5075752;28;20040;-68
2021/01/28 06:08:08;;;;;;;33.47;11.05;;;;;;;;;;5074573;28;20209;-69
2021/01/28 06:11:00;;;;;;;25.05;9.10;;;;;;;;;;5066551;28;20102;-68
2021/01/28 06:13:39;;;;;;;29.85;10.32;;;;;;;;;;5074122;28;20041;-68
2021/01/28 06:16:18;;;;;;;29.75;10.73;;;;;;;;;;5076042;28;20494;-69
2021/01/28 06:18:49;;;;;;;19.38;8.57;;;;;;;;;;5054694;28;20472;-68
2021/01/28 06:21:27;;;;;;;17.50;8.90;;;;;;;;;;5075451;28;20052;-70
2021/01/28 06:24:13;;;;;;;30.33;9.88;;;;;;;;;;5078174;28;20088;-68
2021/01/28 06:26:46;;;;;;;19.50;8.40;;;;;;;;;;5078596;28;20048;-68
2021/01/28 06:29:27;;;;;;;23.83;9.85;;;;;;;;;;5074529;28;20109;-69
2021/01/28 06:32:06;;;;;;;19.55;8.95;;;;;;;;;;5072556;28;20048;-69
2021/01/28 06:34:52;;;;;;;25.15;10.70;;;;;;;;;;5076975;28;20047;-69
2021/01/28 06:37:37;;;;;;;27.65;11.65;;;;;;;;;;5087916;28;20055;-68
2021/01/28 06:40:05;;;;;;;17.95;10.23;;;;;;;;;;5073748;28;20483;-69
2021/01/28 06:42:39;;;;;;;28.83;12.85;;;;;;;;;;5075316;28;20152;-68
2021/01/28 06:45:17;;;;;;;32.30;13.38;;;;;;;;;;5074443;28;20122;-69
2021/01/28 06:47:47;;;;;;;27.58;13.38;;;;;;;;;;5077755;28;20106;-68
2021/01/28 06:50:16;;;;;;;30.90;12.75;;;;;;;;;;5082800;28;20073;-68
2021/01/28 06:52:47;;;;;;;30.13;13.27;;;;;;;;;;5073451;28;20072;-69
2021/01/28 06:55:25;;;;;;;28.23;13.60;;;;;;;;;;5078165;28;20473;-68
2021/01/28 06:58:09;;;;;;;32.53;14.50;;;;;;;;;;5075258;28;20066;-69
2021/01/28 07:00:38;;;;;;;23.35;12.77;;;;;;;;;;5071590;28;20067;-67
2021/01/28 07:03:10;;;;;;;28.08;12.10;;;;;;;;;;5072997;28;20036;-69
2021/01/28 07:05:49;;;;;;;20.45;11.23;;;;;;;;;;5076018;28;20161;-69
2021/01/28 07:08:15;;;;;;;29.17;12.88;;;;;;;;;;5072407;28;20079;-67
2021/01/28 07:10:43;;;;;;;25.20;11.43;;;;;;;;;;5076147;28;20112;-67
2021/01/28 07:13:11;;;;;;;31.48;13.18;;;;;;;;;;5076167;28;20048;-68
2021/01/28 07:15:37;;;;;;;32.85;13.20;;;;;;;;;;5074954;28;20469;-68
2021/01/28 07:18:07;;;;;;;33.53;13.45;;;;;;;;;;5062715;28;20075;-69
2021/01/28 07:20:36;;;;;;;23.63;12.80;;;;;;;;;;5068388;28;20770;-68
2021/01/28 07:23:14;;;;;;;24.80;13.35;;;;;;;;;;5071087;28;20032;-68
2021/01/28 07:25:47;;;;;;;24.20;12.02;;;;;;;;;;5085604;28;20068;-73
2021/01/28 07:28:28;;;;;;;25.00;11.45;;;;;;;;;;5090759;28;20480;-76
2021/01/28 07:31:21;;;;;;;27.48;12.38;;;;;;;;;;5075051;28;20044;-75
2021/01/28 07:33:50;;;;;;;31.90;13.52;;;;;;;;;;5064103;28;20044;-73
2021/01/28 07:36:37;;;;;;;24.27;12.10;;;;;;;;;;5092093;28;20063;-72
2021/01/28 07:39:04;;;;;;;26.73;11.60;;;;;;;;;;5082512;28;20048;-74
2021/01/28 07:41:49;;;;;;;30.63;12.82;;;;;;;;;;5087935;28;20051;-73
2021/01/28 07:44:30;;;;;;;30.73;13.65;;;;;;;;;;5092498;28;20048;-75
2021/01/28 07:46:59;;;;;;;30.35;13.85;;;;;;;;;;5085267;28;20044;-75
2021/01/28 07:49:28;;;;;;;30.50;15.70;;;;;;;;;;5076079;28;20043;-75
2021/01/28 07:52:18;;;;;;;40.40;16.50;;;;;;;;;;5088427;28;20036;-73
2021/01/28 07:54:48;;;;;;;32.85;15.82;;;;;;;;;;5086280;28;20097;-76
2021/01/28 07:57:36;;;;;;;32.60;15.57;;;;;;;;;;5090995;28;20145;-75
2021/01/28 08:00:06;;;;;;;33.75;15.55;;;;;;;;;;5092553;28;20048;-73
2021/01/28 08:02:34;;;;;;;31.35;14.80;;;;;;;;;;5069762;28;20028;-72
2021/01/28 08:05:04;;;;;;;29.48;15.10;;;;;;;;;;5082147;28;20255;-72
2021/01/28 08:07:34;;;;;;;31.77;16.63;;;;;;;;;;5077955;28;20139;-74
2021/01/28 08:10:04;;;;;;;28.98;14.30;;;;;;;;;;5091786;28;20885;-75
2021/01/28 08:12:35;;;;;;;28.73;15.13;;;;;;;;;;5073933;28;20058;-73
2021/01/28 08:15:09;;;;;;;29.95;16.42;;;;;;;;;;5092778;28;20138;-74
2021/01/28 08:17:35;;;;;;;;;;;;;;;;;;5092157;28;20043;-73
2021/01/28 08:20:14;;;;;;;30.27;14.18;;;;;;;;;;5091647;28;20003;-76
2021/01/28 08:22:58;;;;;;;24.88;14.23;;;;;;;;;;5090334;28;20135;-76
2021/01/28 08:25:25;;;;;;;29.45;15.20;;;;;;;;;;5080520;28;20074;-68
2021/01/28 08:27:51;;;;;;;24.60;13.63;;;;;;;;;;5086947;28;20049;-70
2021/01/28 08:30:21;;;;;;;25.23;12.30;;;;;;;;;;5079308;28;20537;-71
2021/01/28 08:32:48;;;;;;;21.65;11.35;;;;;;;;;;5091275;28;20032;-70
2021/01/28 08:35:17;;;;;;;25.67;12.48;;;;;;;;;;5092450;28;20044;-69
2021/01/28 08:37:44;;;;;;;26.35;11.63;;;;;;;;;;5091291;28;20123;-69
2021/01/28 08:40:15;;;;;;;21.13;11.38;;;;;;;;;;5091868;28;20070;-78
2021/01/28 08:42:42;;;;;;;23.52;10.80;;;;;;;;;;5091803;28;20048;-69
2021/01/28 08:45:18;;;;;;;23.15;11.13;;;;;;;;;;5091083;28;20031;-75
2021/01/28 08:47:55;;;;;;;20.48;10.25;;;;;;;;;;5091837;28;20463;-76
2021/01/28 08:50:24;;;;;;;17.23;9.52;;;;;;;;;;5092052;28;20044;-73
2021/01/28 08:52:53;;;;;;;20.67;10.40;;;;;;;;;;5091224;28;20052;-70
2021/01/28 08:55:27;;;;;;;21.00;10.05;;;;;;;;;;5091523;28;20036;-69
2021/01/28 08:57:58;;;;;;;17.48;9.20;;;;;;;;;;5073614;28;20353;-71
2021/01/28 09:00:24;;;;;;;15.38;7.97;;;;;;;;;;5091240;28;20076;-72
2021/01/28 09:02:52;;;;;;;14.95;8.25;;;;;;;;;;5091633;28;20407;-71
2021/01/28 09:05:22;;;;;;;17.60;8.90;;;;;;;;;;5091749;28;20440;-80
2021/01/28 09:07:57;;;;;;;21.95;9.18;;;;;;;;;;5091063;28;20380;-77
2021/01/28 09:10:24;;;;;;;18.75;9.57;;;;;;;;;;5091685;28;20051;-72
2021/01/28 09:12:51;;;;;;;19.15;9.70;;;;;;;;;;5090676;28;20046;-69
2021/01/28 09:15:18;;;;;;;14.32;9.02;;;;;;;;;;5091662;28;20114;-75
2021/01/28 09:17:45;;;;;;;19.20;9.50;;;;;;;;;;5091460;28;20093;-74
2021/01/28 09:20:29;;;;;;;21.20;9.43;;;;;;;;;;5090981;28;20052;-70
2021/01/28 09:23:07;;;;;;;19.00;9.30;;;;;;;;;;5091472;28;20044;-77
2021/01/28 09:25:34;;;;;;;19.92;9.18;;;;;;;;;;5091661;28;20044;-79
2021/01/28 09:28:03;;;;;;;23.10;11.15;;;;;;;;;;5090830;28;20402;-71
2021/01/28 09:30:36;;;;;;;22.33;10.57;;;;;;;;;;5091581;28;20036;-71
2021/01/28 09:33:21;;;;;;;19.07;9.07;;;;;;;;;;5091259;28;20048;-76
2021/01/28 09:36:01;;;;;;;24.83;13.77;;;;;;;;;;5087258;28;20111;-78
2021/01/28 09:38:27;;;;;;;20.80;10.52;;;;;;;;;;5085472;28;20040;-77
2021/01/28 09:41:07;;;;;;;23.95;12.25;;;;;;;;;;5083713;28;20036;-74
2021/01/28 09:43:34;;;;;;;20.05;10.00;;;;;;;;;;5080765;28;20102;-78
2021/01/28 09:46:02;;;;;;;22.35;9.75;;;;;;;;;;5072540;28;20055;-71
2021/01/28 09:48:29;;;;;;;18.10;9.80;;;;;;;;;;5072393;28;20420;-71
2021/01/28 09:50:55;;;;;;;19.40;10.48;;;;;;;;;;5072299;28;20046;-74
2021/01/28 09:53:22;;;;;;;28.17;16.77;;;;;;;;;;5073143;28;20068;-71
2021/01/28 09:55:51;;;;;;;23.02;12.52;;;;;;;;;;5088818;28;20373;-70
2021/01/28 09:58:18;;;;;;;27.95;15.45;;;;;;;;;;5091247;28;20040;-70
2021/01/28 10:00:45;;;;;;;21.00;11.82;;;;;;;;;;5073196;28;20044;-72
2021/01/28 10:03:12;;;;;;;24.90;10.98;;;;;;;;;;5090659;28;20032;-63
2021/01/28 10:05:38;;;;;;;23.17;11.73;;;;;;;;;;5090923;28;20047;-63
2021/01/28 10:08:05;;;;;;;21.15;10.80;;;;;;;;;;5091259;28;20048;-63
2021/01/28 10:10:33;;;;;;;23.35;11.63;;;;;;;;;;5090400;28;20048;-64
2021/01/28 10:13:02;;;;;;;36.50;24.48;;;;;;;;;;5091382;28;20110;-63
2021/01/28 10:15:29;;;;;;;24.05;11.65;;;;;;;;;;5091066;28;20437;-63
2021/01/28 10:17:56;;;;;;;25.23;13.35;;;;;;;;;;5090542;28;20157;-63
2021/01/28 10:20:23;;;;;;;27.38;12.68;;;;;;;;;;5091954;28;20394;-63
2021/01/28 10:22:51;;;;;;;26.77;12.65;;;;;;;;;;5095042;28;20040;-63
2021/01/28 10:25:18;;;;;;;24.02;11.70;;;;;;;;;;5094340;28;20092;-63
2021/01/28 10:27:44;;;;;;;21.88;12.73;;;;;;;;;;5094515;28;20044;-63
2021/01/28 10:30:12;;;;;;;22.25;11.25;;;;;;;;;;5084730;28;20060;-63
2021/01/28 10:32:38;;;;;;;25.33;12.10;;;;;;;;;;5071475;28;20044;-70
2021/01/28 10:35:05;;;;;;;29.08;13.50;;;;;;;;;;5056211;28;20486;-63
2021/01/28 10:37:32;;;;;;;24.73;12.10;;;;;;;;;;5091068;28;20060;-63
2021/01/28 10:39:58;;;;;;;26.63;11.32;;;;;;;;;;5092229;28;20044;-70
2021/01/28 10:42:28;;;;;;;18.70;11.40;;;;;;;;;;5088292;28;20047;-63
2021/01/28 10:44:55;;;;;;;30.50;12.88;;;;;;;;;;5092376;28;20044;-63
2021/01/28 10:47:21;;;;;;;26.10;15.52;;;;;;;;;;5094069;28;20185;-62
2021/01/28 10:49:47;;;;;;;16.52;9.13;;;;;;;;;;5094095;28;20071;-63
2021/01/28 10:52:14;;;;;;;19.08;10.10;;;;;;;;;;5093398;28;20107;-62
2021/01/28 10:54:40;;;;;;;21.17;10.43;;;;;;;;;;5094005;28;20040;-63
2021/01/28 10:57:06;;;;;;;18.30;9.63;;;;;;;;;;5094156;28;20086;-62
2021/01/28 10:59:33;;;;;;;16.88;7.15;;;;;;;;;;5093064;28;20055;-62
2021/01/28 11:02:00;;;;;;;11.20;6.07;;;;;;;;;;5094177;28;20088;-63
2021/01/28 11:04:27;;;;;;;12.25;5.50;;;;;;;;;;5093877;28;20044;-62
2021/01/28 11:06:54;;;;;;;9.93;4.35;;;;;;;;;;5075249;28;20118;-62
2021/01/28 11:09:20;;;;;;;9.07;3.90;;;;;;;;;;5093898;28;20064;-62
2021/01/28 11:11:47;;;;;;;6.65;3.10;;;;;;;;;;5093774;28;20384;-63
2021/01/28 11:14:13;;;;;;;8.20;3.50;;;;;;;;;;5093162;28;20051;-63
2021/01/28 11:16:40;;;;;;;7.13;3.10;;;;;;;;;;5093922;28;20059;-63
2021/01/28 11:19:07;;;;;;;8.27;3.28;;;;;;;;;;5093755;28;20043;-62
2021/01/28 11:21:34;;;;;;;8.70;3.40;;;;;;;;;;5093151;28;20455;-69
2021/01/28 11:24:00;;;;;;;6.95;4.55;;;;;;;;;;5093821;28;20093;-63
2021/01/28 11:26:27;;;;;;;8.10;3.25;;;;;;;;;;5092748;28;20086;-62
2021/01/28 11:28:53;;;;;;;7.40;3.30;;;;;;;;;;5093677;28;20048;-62
2021/01/28 11:31:19;;;;;;;7.75;3.78;;;;;;;;;;5074591;28;20050;-62
2021/01/28 11:33:45;;;;;;;10.50;3.13;;;;;;;;;;5092028;28;20041;-63
2021/01/28 11:36:12;;;;;;;11.18;3.75;;;;;;;;;;5075102;28;20044;-62
2021/01/28 11:38:38;;;;;;;8.27;3.53;;;;;;;;;;5093563;28;20105;-62
2021/01/28 11:41:05;;;;;;;8.70;3.55;;;;;;;;;;5092509;28;20046;-62
2021/01/28 11:43:31;;;;;;;8.70;2.78;;;;;;;;;;5071575;28;20055;-62
2021/01/28 11:45:58;;;;;;;6.85;2.50;;;;;;;;;;5072851;28;20048;-65
2021/01/28 11:48:24;;;;;;;4.88;2.60;;;;;;;;;;5072055;28;20033;-65
2021/01/28 11:50:51;;;;;;;5.28;2.97;;;;;;;;;;5072895;28;20052;-66
2021/01/28 11:53:17;;;;;;;6.13;2.67;;;;;;;;;;5072900;28;20141;-71
2021/01/28 11:55:43;;;;;;;8.00;3.30;;;;;;;;;;5071469;28;20621;-70
2021/01/28 11:58:11;;;;;;;7.22;3.15;;;;;;;;;;5071914;28;20484;-71
2021/01/28 12:00:37;;;;;;;9.00;2.78;;;;;;;;;;5067743;28;20044;-71
2021/01/28 12:03:04;;;;;;;5.22;2.53;;;;;;;;;;5070775;28;20051;-72
2021/01/28 12:05:31;;;;;;;6.72;2.80;;;;;;;;;;5071891;28;20067;-71
2021/01/28 12:07:58;;;;;;;6.07;3.20;;;;;;;;;;5070364;28;20427;-71
2021/01/28 12:10:26;;;;;;;10.50;3.22;;;;;;;;;;5071288;28;20097;-71
2021/01/28 12:12:53;;;;;;;8.52;3.08;;;;;;;;;;5071275;28;20064;-66
2021/01/28 12:15:20;;;;;;;10.35;3.50;;;;;;;;;;5071568;28;20086;-69
2021/01/28 12:17:47;;;;;;;16.35;4.28;;;;;;;;;;5070821;28;20522;-71
2021/01/28 12:20:14;;;;;;;7.22;3.97;;;;;;;;;;5071737;28;20047;-71
2021/01/28 12:22:40;;;;;;;9.32;3.53;;;;;;;;;;5071158;28;20056;-69
2021/01/28 12:25:07;;;;;;;8.20;3.85;;;;;;;;;;5071257;28;20480;-66
2021/01/28 12:27:34;;;;;;;9.02;3.38;;;;;;;;;;5069964;28;20094;-71
2021/01/28 12:30:00;;;;;;;11.00;4.05;;;;;;;;;;5070614;28;20119;-66
2021/01/28 12:32:27;;;;;;;10.90;3.75;;;;;;;;;;5071194;28;20415;-66
2021/01/28 12:34:54;;;;;;;6.13;3.55;;;;;;;;;;5069326;28;20044;-75
2021/01/28 12:37:20;;;;;;;12.38;3.97;;;;;;;;;;5058502;28;20052;-71
2021/01/28 12:39:46;;;;;;;8.45;3.63;;;;;;;;;;5053651;28;20136;-71
2021/01/28 12:42:13;;;;;;;8.43;3.55;;;;;;;;;;5060467;28;20028;-71
2021/01/28 12:44:39;;;;;;;11.95;4.22;;;;;;;;;;5068884;28;20049;-67
2021/01/28 12:47:06;;;;;;;8.55;3.72;;;;;;;;;;5071530;28;20144;-69
2021/01/28 12:49:33;;;;;;;10.77;4.13;;;;;;;;;;5071917;28;20135;-67
2021/01/28 12:51:59;;;;;;;9.05;4.05;;;;;;;;;;5067569;28;20119;-66
2021/01/28 12:54:26;;;;;;;13.93;5.00;;;;;;;;;;5073789;28;20074;-66
2021/01/28 12:56:52;;;;;;;6.90;3.58;;;;;;;;;;5062831;28;20048;-67
2021/01/28 12:59:18;;;;;;;7.85;3.58;;;;;;;;;;5062472;28;20110;-67
2021/01/28 13:01:45;;;;;;;10.05;4.28;;;;;;;;;;5062547;28;20055;-72
2021/01/28 13:04:11;;;;;;;9.02;3.80;;;;;;;;;;5037092;28;20051;-67
2021/01/28 13:06:37;;;;;;;7.65;3.97;;;;;;;;;;5070899;28;20071;-72
2021/01/28 13:09:03;;;;;;;9.05;3.75;;;;;;;;;;5064229;28;20149;-67
2021/01/28 13:11:31;;;;;;;15.05;5.18;;;;;;;;;;5071795;28;20044;-66
2021/01/28 13:13:58;;;;;;;5.95;3.25;;;;;;;;;;5065267;28;20106;-66
2021/01/28 13:16:25;;;;;;;12.70;4.30;;;;;;;;;;5054533;28;20125;-67
2021/01/28 13:18:51;;;;;;;11.95;4.43;;;;;;;;;;5075007;28;20117;-67
2021/01/28 13:21:18;;;;;;;6.88;3.50;;;;;;;;;;5070670;28;20052;-66
2021/01/28 13:23:44;;;;;;;6.10;3.42;;;;;;;;;;5076012;28;20064;-70
2021/01/28 13:26:11;;;;;;;7.22;4.07;;;;;;;;;;5063146;28;20084;-68
2021/01/28 13:28:37;;;;;;;7.43;3.75;;;;;;;;;;5052585;28;20040;-68
2021/01/28 13:31:03;;;;;;;8.43;4.10;;;;;;;;;;5065984;28;20145;-66
2021/01/28 13:33:33;;;;;;;7.28;3.28;;;;;;;;;;5069385;28;20044;-80
2021/01/28 13:35:59;;;;;;;10.07;3.83;;;;;;;;;;5072158;28;20041;-66
2021/01/28 13:38:26;;;;;;;7.78;3.20;;;;;;;;;;5050241;28;20078;-65
2021/01/28 13:40:52;;;;;;;7.30;3.85;;;;;;;;;;5043366;28;20081;-72
2021/01/28 13:43:19;;;;;;;6.72;3.22;;;;;;;;;;5035528;28;20492;-65
2021/01/28 13:45:45;;;;;;;8.23;2.90;;;;;;;;;;5072196;28;20045;-65
2021/01/28 13:48:12;;;;;;;8.35;3.47;;;;;;;;;;5073413;28;20073;-70
2021/01/28 13:50:39;;;;;;;9.13;3.10;;;;;;;;;;5058557;28;20505;-83
2021/01/28 13:53:06;;;;;;;7.60;3.17;;;;;;;;;;5077052;28;20060;-80
2021/01/28 13:55:33;;;;;;;6.93;3.17;;;;;;;;;;5071112;28;20098;-86
2021/01/28 13:57:59;;;;;;;7.80;3.17;;;;;;;;;;5074965;28;20388;-70
2021/01/28 14:00:26;;;;;;;6.03;3.28;;;;;;;;;;5063562;28;20447;-69
2021/01/28 14:02:53;;;;;;;6.22;2.92;;;;;;;;;;5072175;28;20353;-69
2021/01/28 14:05:20;;;;;;;5.45;2.63;;;;;;;;;;5082637;28;20040;-71
2021/01/28 14:07:47;;;;;;;7.63;3.15;;;;;;;;;;5074928;28;20085;-70
2021/01/28 14:10:16;;;;;;;10.18;3.42;;;;;;;;;;5073956;28;20114;-67
2021/01/28 14:12:43;;;;;;;8.98;3.40;;;;;;;;;;5074825;28;20033;-72
2021/01/28 14:15:11;;;;;;;8.70;3.58;;;;;;;;;;5079478;28;20097;-70
2021/01/28 14:17:37;;;;;;;7.93;2.90;;;;;;;;;;5080087;28;20074;-67
2021/01/28 14:20:05;;;;;;;5.82;2.67;;;;;;;;;;5056543;28;20412;-71
2021/01/28 14:22:31;;;;;;;8.70;3.30;;;;;;;;;;5041112;28;20059;-70
2021/01/28 14:24:57;;;;;;;6.10;2.42;;;;;;;;;;5061179;28;20148;-65
2021/01/28 14:27:24;;;;;;;8.13;2.90;;;;;;;;;;5056698;28;20560;-65
2021/01/28 14:29:50;;;;;;;5.28;2.85;;;;;;;;;;5054511;28;20094;-65
2021/01/28 14:32:17;;;;;;;6.80;2.80;;;;;;;;;;5062169;28;20086;-71
2021/01/28 14:34:43;;;;;;;4.70;2.70;;;;;;;;;;5054512;28;20044;-66